PWSweather.com
Personal Weather Stations
Station Observations
IMAZOWIE6
WarszawaPL

WarszawaPL

Lat: 52.27957, Lon: 21.05489

Elevation: 100

Station Type: WS1080

http://stacjapogody.waw.pl/

High Low Average
Temperature 63.5°F17.5°C 56.7°F13.7°C 59.7°F15.4°C
Dew Point 33.8°F1.0°C -167.0°F-110.6°C 6.5°F-14.2°C
Winds 2.0 mph 3.2 kmh Calm Calm 1.0 mph N1.6 kmh N
Wind Gusts 4.8 mph7.7 kmh -- 2.0 mph3.2 kmh
Humidity 36% 12% 23%
Pressure 29.53 in1000.0 mb 29.38 in994.9 mb -
Precipitation 0.00 in0.0 mm - -
Hour Temp Dew Point Humidity Winds Wind Gusts Pressure Precip Precip Rate Daily Precip Total
12:03 AM 61.2°F16.2°C -166.7°F-110.4°C - Calm Calm 0.6 mph1.0 kmh 29.46 in997.6 mb 0.00 in0.0 mm 0.00 in0.0 mm 0.00 in0.0 mm
12:18 AM 61.0°F16.1°C -166.7°F-110.4°C - Calm Calm -- 29.45 in997.3 mb 0.00 in0.0 mm 0.00 in0.0 mm 0.00 in0.0 mm
12:33 AM 60.6°F15.9°C -166.7°F-110.4°C - Calm Calm 0.6 mph1.0 kmh 29.45 in997.3 mb 0.00 in0.0 mm 0.00 in0.0 mm 0.00 in0.0 mm
12:48 AM 60.3°F15.7°C -166.8°F-110.4°C - Calm Calm -- 29.45 in997.3 mb 0.00 in0.0 mm 0.00 in0.0 mm 0.00 in0.0 mm
01:03 AM 59.9°F15.5°C -166.8°F-110.4°C - Calm Calm -- 29.45 in997.3 mb 0.00 in0.0 mm 0.00 in0.0 mm 0.00 in0.0 mm
01:18 AM 59.4°F15.2°C -166.9°F-110.5°C - Calm Calm -- 29.43 in996.6 mb 0.02 in0.5 mm 0.10 in2.5 mm 0.02 in0.5 mm
01:33 AM 58.5°F14.7°C -167.0°F-110.6°C - Calm Calm -- 29.42 in996.3 mb 0.05 in1.3 mm 0.10 in2.5 mm 0.05 in1.3 mm
01:48 AM 58.6°F14.8°C 6.1°F-14.4°C 12% Calm Calm -- 29.39 in995.3 mb 0.11 in2.8 mm 0.25 in6.4 mm 0.11 in2.8 mm
02:03 AM 58.5°F14.7°C 9.3°F-12.6°C 14% Calm Calm -- 29.39 in995.3 mb 0.14 in3.6 mm 0.03 in0.8 mm 0.14 in3.6 mm
02:18 AM 58.3°F14.6°C 13.5°F-10.3°C 17% Calm Calm -- 29.39 in995.3 mb 0.01 in0.3 mm 0.00 in0.0 mm 0.14 in3.6 mm
02:33 AM 58.3°F14.6°C 14.8°F-9.6°C 18% Calm Calm -- 29.39 in995.3 mb 0.01 in0.3 mm 0.00 in0.0 mm 0.14 in3.6 mm
02:48 AM 58.1°F14.5°C 17.1°F-8.3°C 20% Calm Calm -- 29.38 in994.9 mb 0.01 in0.3 mm 0.00 in0.0 mm 0.14 in3.6 mm
03:03 AM 58.3°F14.6°C 18.4°F-7.6°C 21% Calm Calm -- 29.39 in995.3 mb 0.01 in0.3 mm 0.00 in0.0 mm 0.14 in3.6 mm
03:18 AM 58.6°F14.8°C 19.7°F-6.8°C 22% Calm Calm -- 29.39 in995.3 mb 0.00 in0.0 mm 0.00 in0.0 mm 0.14 in3.6 mm
03:33 AM 58.6°F14.8°C 21.8°F-5.7°C 24% Calm Calm 0.6 mph1.0 kmh 29.39 in995.3 mb 0.00 in0.0 mm 0.00 in0.0 mm 0.14 in3.6 mm
03:48 AM 59.2°F15.1°C 23.2°F-4.9°C 25% Calm Calm 0.6 mph1.0 kmh 29.40 in995.6 mb 0.00 in0.0 mm 0.00 in0.0 mm 0.14 in3.6 mm
04:03 AM 59.4°F15.2°C 24.3°F-4.3°C 26% Calm Calm 2.0 mph3.2 kmh 29.40 in995.6 mb 0.00 in0.0 mm 0.00 in0.0 mm 0.14 in3.6 mm
04:20 AM 59.5°F15.3°C 25.4°F-3.7°C 27% 0.6 mph N1.0 kmh N 2.0 mph3.2 kmh 29.40 in995.6 mb 0.00 in0.0 mm 0.00 in0.0 mm 0.14 in3.6 mm
04:33 AM 59.4°F15.2°C 25.2°F-3.8°C 27% 1.4 mph N2.3 kmh N 3.4 mph5.5 kmh 29.41 in995.9 mb 0.01 in0.3 mm 0.06 in1.5 mm 0.15 in3.8 mm
04:48 AM 59.2°F15.1°C 25.9°F-3.4°C 28% 0.6 mph N1.0 kmh N 2.8 mph4.5 kmh 29.41 in995.9 mb 0.04 in1.0 mm 0.10 in2.5 mm 0.17 in4.3 mm
05:03 AM 59.2°F15.1°C 26.8°F-2.9°C 29% Calm Calm 2.0 mph3.2 kmh 29.40 in995.6 mb 0.05 in1.3 mm 0.02 in0.5 mm 0.18 in4.6 mm
05:18 AM 58.8°F14.9°C 26.5°F-3.1°C 29% Calm Calm -- 29.39 in995.3 mb 0.02 in0.5 mm 0.00 in0.0 mm 0.18 in4.6 mm
05:33 AM 59.0°F15.0°C 27.4°F-2.6°C 30% Calm Calm -- 29.39 in995.3 mb 0.04 in1.0 mm 0.05 in1.3 mm 0.20 in5.1 mm
05:48 AM 59.2°F15.1°C 29.2°F-1.6°C 32% Calm Calm 2.0 mph3.2 kmh 29.39 in995.3 mb 0.04 in1.0 mm 0.00 in0.0 mm 0.20 in5.1 mm
06:03 AM 59.4°F15.2°C 29.3°F-1.5°C 32% 0.6 mph N1.0 kmh N 1.4 mph2.3 kmh 29.40 in995.6 mb 0.04 in1.0 mm 0.00 in0.0 mm 0.20 in5.1 mm
06:18 AM 59.2°F15.1°C 29.9°F-1.2°C 33% 0.6 mph N1.0 kmh N 2.0 mph3.2 kmh 29.41 in995.9 mb 0.00 in0.0 mm 0.00 in0.0 mm 0.20 in5.1 mm
06:33 AM 59.0°F15.0°C 29.8°F-1.2°C 33% 2.0 mph N3.2 kmh N 4.8 mph7.7 kmh 29.41 in995.9 mb 0.00 in0.0 mm 0.00 in0.0 mm 0.20 in5.1 mm
06:48 AM 58.8°F14.9°C 30.3°F-0.9°C 34% 0.6 mph N1.0 kmh N 3.4 mph5.5 kmh 29.41 in995.9 mb 0.00 in0.0 mm 0.00 in0.0 mm 0.20 in5.1 mm
07:03 AM 58.8°F14.9°C 31.1°F-0.5°C 35% 0.6 mph N1.0 kmh N 2.8 mph4.5 kmh 29.41 in995.9 mb 0.00 in0.0 mm 0.00 in0.0 mm 0.20 in5.1 mm
07:18 AM 58.5°F14.7°C 30.7°F-0.7°C 35% 1.4 mph N2.3 kmh N 3.4 mph5.5 kmh 29.42 in996.3 mb 0.00 in0.0 mm 0.00 in0.0 mm 0.20 in5.1 mm
07:33 AM 58.5°F14.7°C 30.7°F-0.7°C 35% 0.6 mph N1.0 kmh N 2.8 mph4.5 kmh 29.42 in996.3 mb 0.00 in0.0 mm 0.00 in0.0 mm 0.20 in5.1 mm
07:48 AM 58.8°F14.9°C 31.1°F-0.5°C 35% 1.4 mph N2.3 kmh N 3.4 mph5.5 kmh 29.42 in996.3 mb 0.00 in0.0 mm 0.00 in0.0 mm 0.20 in5.1 mm
08:03 AM 58.8°F14.9°C 31.8°F-0.1°C 36% Calm Calm 2.0 mph3.2 kmh 29.42 in996.3 mb 0.00 in0.0 mm 0.00 in0.0 mm 0.20 in5.1 mm
08:18 AM 58.8°F14.9°C 31.8°F-0.1°C 36% Calm Calm 2.0 mph3.2 kmh 29.43 in996.6 mb 0.00 in0.0 mm 0.00 in0.0 mm 0.20 in5.1 mm
08:33 AM 59.2°F15.1°C 32.1°F0.1°C 36% 0.6 mph N1.0 kmh N 2.8 mph4.5 kmh 29.43 in996.6 mb 0.00 in0.0 mm 0.00 in0.0 mm 0.20 in5.1 mm
08:48 AM 59.5°F15.3°C 32.4°F0.2°C 36% 1.4 mph N2.3 kmh N 3.4 mph5.5 kmh 29.43 in996.6 mb 0.00 in0.0 mm 0.00 in0.0 mm 0.20 in5.1 mm
09:03 AM 59.7°F15.4°C 32.6°F0.3°C 36% 0.6 mph N1.0 kmh N 2.8 mph4.5 kmh 29.43 in996.6 mb 0.00 in0.0 mm 0.00 in0.0 mm 0.20 in5.1 mm
09:18 AM 60.6°F15.9°C 33.4°F0.8°C 36% 0.6 mph N1.0 kmh N 2.8 mph4.5 kmh 29.43 in996.6 mb 0.00 in0.0 mm 0.00 in0.0 mm 0.20 in5.1 mm
09:33 AM 61.2°F16.2°C 33.8°F1.0°C 36% Calm Calm 1.4 mph2.3 kmh 29.44 in997.0 mb 0.00 in0.0 mm 0.00 in0.0 mm 0.20 in5.1 mm
09:48 AM 61.5°F16.4°C 33.5°F0.8°C 35% 1.4 mph N2.3 kmh N 2.8 mph4.5 kmh 29.44 in997.0 mb 0.00 in0.0 mm 0.00 in0.0 mm 0.20 in5.1 mm
10:03 AM 61.5°F16.4°C 32.7°F0.4°C 34% 1.4 mph N2.3 kmh N 4.0 mph6.4 kmh 29.44 in997.0 mb 0.00 in0.0 mm 0.00 in0.0 mm 0.20 in5.1 mm
10:18 AM 61.7°F16.5°C 30.6°F-0.8°C 31% 2.0 mph N3.2 kmh N 4.0 mph6.4 kmh 29.45 in997.3 mb 0.00 in0.0 mm 0.00 in0.0 mm 0.20 in5.1 mm
10:33 AM 62.2°F16.8°C 29.4°F-1.4°C 29% 2.0 mph N3.2 kmh N 3.4 mph5.5 kmh 29.46 in997.6 mb 0.00 in0.0 mm 0.00 in0.0 mm 0.20 in5.1 mm
10:48 AM 62.8°F17.1°C 28.2°F-2.1°C 27% 0.6 mph N1.0 kmh N 2.0 mph3.2 kmh 29.46 in997.6 mb 0.00 in0.0 mm 0.00 in0.0 mm 0.20 in5.1 mm
11:18 AM 63.3°F17.4°C 22.6°F-5.2°C 21% 1.4 mph N2.3 kmh N 2.8 mph4.5 kmh 29.47 in998.0 mb 0.00 in0.0 mm 0.00 in0.0 mm 0.20 in5.1 mm
11:33 AM 63.5°F17.5°C 20.4°F-6.4°C 19% 1.4 mph N2.3 kmh N 2.8 mph4.5 kmh 29.46 in997.6 mb 0.00 in0.0 mm 0.00 in0.0 mm 0.20 in5.1 mm
11:48 AM 63.5°F17.5°C 17.8°F-7.9°C 17% 0.6 mph N1.0 kmh N 2.8 mph4.5 kmh 29.46 in997.6 mb 0.00 in0.0 mm 0.00 in0.0 mm 0.20 in5.1 mm
12:03 PM 63.0°F17.2°C 14.5°F-9.7°C 15% 0.6 mph N1.0 kmh N 2.8 mph4.5 kmh 29.46 in997.6 mb 0.00 in0.0 mm 0.00 in0.0 mm 0.20 in5.1 mm
12:18 PM 63.0°F17.2°C 13.0°F-10.6°C 14% 0.6 mph N1.0 kmh N 3.4 mph5.5 kmh 29.47 in998.0 mb 0.00 in0.0 mm 0.00 in0.0 mm 0.20 in5.1 mm
12:33 PM 62.4°F16.9°C 10.9°F-11.7°C 13% 2.0 mph N3.2 kmh N 4.0 mph6.4 kmh 29.47 in998.0 mb 0.00 in0.0 mm 0.00 in0.0 mm 0.20 in5.1 mm
12:48 PM 61.5°F16.4°C 8.4°F-13.1°C 12% Calm Calm 0.6 mph1.0 kmh 29.48 in998.3 mb 0.00 in0.0 mm 0.00 in0.0 mm 0.20 in5.1 mm
01:03 PM 60.8°F16.0°C 9.6°F-12.4°C 13% Calm Calm 0.6 mph1.0 kmh 29.48 in998.3 mb 0.00 in0.0 mm 0.00 in0.0 mm 0.20 in5.1 mm
01:18 PM 60.4°F15.8°C 10.9°F-11.7°C 14% 0.6 mph N1.0 kmh N 3.4 mph5.5 kmh 29.48 in998.3 mb 0.00 in0.0 mm 0.00 in0.0 mm 0.20 in5.1 mm
01:33 PM 61.0°F16.1°C 12.9°F-10.6°C 15% Calm Calm 1.4 mph2.3 kmh 29.48 in998.3 mb 0.00 in0.0 mm 0.00 in0.0 mm 0.20 in5.1 mm
01:48 PM 61.7°F16.5°C 13.5°F-10.3°C 15% 1.4 mph N2.3 kmh N 2.8 mph4.5 kmh 29.48 in998.3 mb 0.00 in0.0 mm 0.00 in0.0 mm 0.20 in5.1 mm
02:03 PM 61.5°F16.4°C 11.8°F-11.2°C 14% 1.4 mph N2.3 kmh N 2.8 mph4.5 kmh 29.49 in998.6 mb 0.00 in0.0 mm 0.00 in0.0 mm 0.20 in5.1 mm
02:18 PM 61.7°F16.5°C 11.9°F-11.2°C 14% 0.6 mph N1.0 kmh N 1.4 mph2.3 kmh 29.49 in998.6 mb 0.00 in0.0 mm 0.00 in0.0 mm 0.20 in5.1 mm
02:33 PM 62.4°F16.9°C 12.5°F-10.8°C 14% Calm Calm 2.8 mph4.5 kmh 29.49 in998.6 mb 0.00 in0.0 mm 0.00 in0.0 mm 0.20 in5.1 mm
02:48 PM 61.7°F16.5°C 10.3°F-12.1°C 13% 0.6 mph N1.0 kmh N 3.4 mph5.5 kmh 29.49 in998.6 mb 0.00 in0.0 mm 0.00 in0.0 mm 0.20 in5.1 mm
03:03 PM 61.0°F16.1°C 9.7°F-12.4°C 13% 1.4 mph N2.3 kmh N 4.0 mph6.4 kmh 29.49 in998.6 mb 0.00 in0.0 mm 0.00 in0.0 mm 0.20 in5.1 mm
03:18 PM 60.8°F16.0°C 11.2°F-11.6°C 14% 1.4 mph N2.3 kmh N 3.4 mph5.5 kmh 29.49 in998.6 mb 0.00 in0.0 mm 0.00 in0.0 mm 0.20 in5.1 mm
03:33 PM 61.2°F16.2°C 13.1°F-10.5°C 15% 1.4 mph N2.3 kmh N 2.8 mph4.5 kmh 29.50 in999.0 mb 0.00 in0.0 mm 0.00 in0.0 mm 0.20 in5.1 mm
03:48 PM 60.8°F16.0°C 12.8°F-10.7°C 15% 0.6 mph N1.0 kmh N 2.0 mph3.2 kmh 29.50 in999.0 mb 0.01 in0.3 mm 0.05 in1.3 mm 0.21 in5.3 mm
04:03 PM 60.8°F16.0°C 12.8°F-10.7°C 15% 2.0 mph N3.2 kmh N 4.0 mph6.4 kmh 29.50 in999.0 mb 0.01 in0.3 mm 0.00 in0.0 mm 0.21 in5.3 mm
04:18 PM 60.4°F15.8°C 13.9°F-10.1°C 16% Calm Calm 1.4 mph2.3 kmh 29.50 in999.0 mb 0.00 in0.0 mm 0.00 in0.0 mm 0.21 in5.3 mm
04:33 PM 60.1°F15.6°C 15.0°F-9.4°C 17% 0.6 mph N1.0 kmh N 2.8 mph4.5 kmh 29.51 in999.3 mb 0.00 in0.0 mm 0.00 in0.0 mm 0.21 in5.3 mm
04:48 PM 59.7°F15.4°C 14.7°F-9.6°C 17% 1.4 mph N2.3 kmh N 2.8 mph4.5 kmh 29.51 in999.3 mb 0.00 in0.0 mm 0.00 in0.0 mm 0.21 in5.3 mm
05:03 PM 59.7°F15.4°C 16.0°F-8.9°C 18% Calm Calm 2.8 mph4.5 kmh 29.51 in999.3 mb 0.00 in0.0 mm 0.00 in0.0 mm 0.21 in5.3 mm
05:18 PM 59.9°F15.5°C 17.4°F-8.1°C 19% 1.4 mph N2.3 kmh N 3.4 mph5.5 kmh 29.51 in999.3 mb 0.00 in0.0 mm 0.00 in0.0 mm 0.21 in5.3 mm
05:33 PM 60.1°F15.6°C 18.7°F-7.4°C 20% Calm Calm 2.0 mph3.2 kmh 29.51 in999.3 mb 0.00 in0.0 mm 0.00 in0.0 mm 0.21 in5.3 mm
05:48 PM 60.3°F15.7°C 18.9°F-7.3°C 20% 0.6 mph N1.0 kmh N 3.4 mph5.5 kmh 29.51 in999.3 mb 0.00 in0.0 mm 0.00 in0.0 mm 0.21 in5.3 mm
06:03 PM 60.1°F15.6°C 18.7°F-7.4°C 20% 0.6 mph N1.0 kmh N 2.8 mph4.5 kmh 29.52 in999.7 mb 0.00 in0.0 mm 0.00 in0.0 mm 0.21 in5.3 mm
06:18 PM 59.7°F15.4°C 18.4°F-7.6°C 20% 0.6 mph N1.0 kmh N 2.8 mph4.5 kmh 29.52 in999.7 mb 0.00 in0.0 mm 0.00 in0.0 mm 0.21 in5.3 mm
06:33 PM 59.4°F15.2°C 18.1°F-7.7°C 20% 0.6 mph N1.0 kmh N 2.0 mph3.2 kmh 29.52 in999.7 mb 0.00 in0.0 mm 0.00 in0.0 mm 0.21 in5.3 mm
06:48 PM 59.5°F15.3°C 18.3°F-7.6°C 20% 0.6 mph N1.0 kmh N 2.0 mph3.2 kmh 29.52 in999.7 mb 0.00 in0.0 mm 0.00 in0.0 mm 0.21 in5.3 mm
07:03 PM 59.4°F15.2°C 18.1°F-7.7°C 20% 0.6 mph N1.0 kmh N 2.0 mph3.2 kmh 29.52 in999.7 mb 0.00 in0.0 mm 0.00 in0.0 mm 0.21 in5.3 mm
07:18 PM 58.3°F14.6°C 17.2°F-8.2°C 20% 0.6 mph N1.0 kmh N 3.4 mph5.5 kmh 29.52 in999.7 mb 0.00 in0.0 mm 0.00 in0.0 mm 0.21 in5.3 mm
07:33 PM 57.9°F14.4°C 16.9°F-8.4°C 20% Calm Calm 2.0 mph3.2 kmh 29.53 in1000.0 mb 0.00 in0.0 mm 0.00 in0.0 mm 0.21 in5.3 mm
07:48 PM 57.6°F14.2°C 16.6°F-8.6°C 20% Calm Calm 2.0 mph3.2 kmh 29.53 in1000.0 mb 0.00 in0.0 mm 0.00 in0.0 mm 0.21 in5.3 mm
08:03 PM 57.4°F14.1°C 16.5°F-8.6°C 20% 0.6 mph N1.0 kmh N 2.8 mph4.5 kmh 29.53 in1000.0 mb 0.00 in0.0 mm 0.00 in0.0 mm 0.21 in5.3 mm
08:15 PM 57.4°F14.1°C 16.5°F-8.6°C 20% 0.6 mph N1.0 kmh N 2.8 mph4.5 kmh 29.53 in1000.0 mb 0.00 in0.0 mm 0.00 in0.0 mm 0.21 in5.3 mm
08:33 PM 57.7°F14.3°C 19.0°F-7.2°C 22% 0.6 mph N1.0 kmh N 3.4 mph5.5 kmh 29.53 in1000.0 mb 0.00 in0.0 mm 0.00 in0.0 mm 0.21 in5.3 mm
08:48 PM 57.9°F14.4°C 19.1°F-7.2°C 22% Calm Calm 1.4 mph2.3 kmh 29.52 in999.7 mb 0.00 in0.0 mm 0.00 in0.0 mm 0.21 in5.3 mm
09:03 PM 58.5°F14.7°C 20.6°F-6.3°C 23% Calm Calm 2.0 mph3.2 kmh 29.52 in999.7 mb 0.00 in0.0 mm 0.00 in0.0 mm 0.21 in5.3 mm
09:18 PM 58.5°F14.7°C 19.6°F-6.9°C 22% Calm Calm -- 29.52 in999.7 mb 0.00 in0.0 mm 0.00 in0.0 mm 0.21 in5.3 mm
09:33 PM 58.5°F14.7°C 19.6°F-6.9°C 22% Calm Calm 0.6 mph1.0 kmh 29.53 in1000.0 mb 0.00 in0.0 mm 0.00 in0.0 mm 0.21 in5.3 mm
09:48 PM 58.1°F14.5°C 18.2°F-7.7°C 21% Calm Calm 1.4 mph2.3 kmh 29.53 in1000.0 mb 0.00 in0.0 mm 0.00 in0.0 mm 0.21 in5.3 mm
10:03 PM 57.6°F14.2°C 17.8°F-7.9°C 21% 0.6 mph N1.0 kmh N 2.0 mph3.2 kmh 29.53 in1000.0 mb 0.00 in0.0 mm 0.00 in0.0 mm 0.21 in5.3 mm
10:18 PM 57.2°F14.0°C 17.5°F-8.1°C 21% Calm Calm 0.6 mph1.0 kmh 29.52 in999.7 mb 0.00 in0.0 mm 0.00 in0.0 mm 0.21 in5.3 mm
10:33 PM 57.2°F14.0°C 17.5°F-8.1°C 21% Calm Calm 1.4 mph2.3 kmh 29.52 in999.7 mb 0.00 in0.0 mm 0.00 in0.0 mm 0.21 in5.3 mm
10:48 PM 57.2°F14.0°C 17.5°F-8.1°C 21% Calm Calm -- 29.52 in999.7 mb 0.00 in0.0 mm 0.00 in0.0 mm 0.21 in5.3 mm
11:03 PM 57.4°F14.1°C 17.6°F-8.0°C 21% Calm Calm -- 29.52 in999.7 mb 0.00 in0.0 mm 0.00 in0.0 mm 0.21 in5.3 mm
11:18 PM 57.2°F14.0°C 17.5°F-8.1°C 21% Calm Calm -- 29.51 in999.3 mb 0.00 in0.0 mm 0.00 in0.0 mm 0.21 in5.3 mm
11:33 PM 57.0°F13.9°C 17.3°F-8.2°C 21% Calm Calm -- 29.52 in999.7 mb 0.00 in0.0 mm 0.00 in0.0 mm 0.21 in5.3 mm
11:48 PM 56.7°F13.7°C 17.0°F-8.3°C 21% Calm Calm -- 29.51 in999.3 mb 0.00 in0.0 mm 0.00 in0.0 mm 0.21 in5.3 mm